Terminal Aerodrome Forecast
Issued by NWS

Home | Current Version | Previous Version | Text Only | Print | Product List | Glossary On
Versions: 1 2 3 4 5 6 7 8 9 10 11 12 13 14 15 16 17
000
FTUS45 KABQ 010500
TAFTCC
TAF
KTCC 010526Z 0106/0206 12005KT P6SM SCT060
     FM011800 21010KT P6SM SCT025 BKN040
     FM012200 15010KT P6SM VCSH SCT025 OVC040=

USA.gov is the U.S. government's official web portal to all federal, state and local government web resources and services.